Item Display Status Serial CT Sensor

Mooring Depth: 1 m

 

Deployed Sensor

  • Serial Number: 8811
  • NDBC Property Number: 35191
  • Start Date: 11/9/2018 (13:49:03 Z)
  • End Date: Currently Active
Water Temperature [°C]     6 entries per hour
Showing data from 11/19/2019 (15:00:00 Z) to 11/18/2019 (00:00:01 Z)
Previous Next [ Day | 3-Days | 7-Days ]
First Last
Prev [ Day | 3-Days | 7-Days ] Next
First Last

Start Time:     :
End Time:     :     
Time (in GMT) :00 :50 :40 :30 :20 :10
Previous Next [ Day | 3-Days | 7-Days ]
First Last
Prev [ Day | 3-Days | 7-Days ] Next
First Last


123 => good data
MM => data is determined as missing
-- => data not received/configured
Back to Top Back to Top
11/19/2019 15:00 to 14:10 24.139 24.139 24.135 24.141 24.140 24.138
11/19/2019 14:00 to 13:10 24.137 24.140 24.138 24.141 24.139 24.140
11/19/2019 13:00 to 12:10 24.138 24.141 24.136 24.139 24.145 24.147
11/19/2019 12:00 to 11:10 24.148 24.145 24.153 24.152 24.152 24.158
11/19/2019 11:00 to 10:10 24.158 24.160 24.154 24.163 24.158 24.171
11/19/2019 10:00 to 9:10 24.164 24.167 24.165 24.171 24.171 24.172
11/19/2019 09:00 to 8:10 24.162 24.163 24.161 24.175 24.180 24.183
11/19/2019 08:00 to 7:10 24.183 24.174 24.179 24.181 24.177 24.184
11/19/2019 07:00 to 6:10 24.179 24.184 24.172 24.183 24.181 24.181
11/19/2019 06:00 to 5:10 24.176 24.186 24.189 24.192 24.190 24.203
11/19/2019 05:00 to 4:10 24.205 24.216 24.222 24.220 24.226 24.218
11/19/2019 04:00 to 3:10 24.221 24.213 24.223 24.248 24.246 24.249
11/19/2019 03:00 to 2:10 24.240 24.243 24.235 24.239 24.249 24.247
11/19/2019 02:00 to 1:10 24.260 24.267 24.255 24.270 24.272 24.277
11/19/2019 01:00 to 0:10 24.285 24.287 24.291 24.312 24.316 24.337
11/19/2019 00:00 to 23:10 24.334 24.330 24.343 24.380 24.375 24.375
11/18/2019 23:00 to 22:10 24.368 24.379 24.379 24.380 24.414 24.408
11/18/2019 22:00 to 21:10 24.408 24.412 24.388 24.419 24.390 24.378
11/18/2019 21:00 to 20:10 24.396 24.402 24.384 24.375 24.383 24.335
11/18/2019 20:00 to 19:10 24.313 24.339 24.331 24.307 24.330 24.316
11/18/2019 19:00 to 18:10 24.306 24.291 24.253 24.265 24.275 24.287
11/18/2019 18:00 to 17:10 24.232 24.243 24.262 24.234 24.214 24.217
11/18/2019 17:00 to 16:10 24.203 24.200 24.207 24.191 24.173 24.175
11/18/2019 16:00 to 15:10 24.172 24.162 24.166 24.164 24.161 24.159
11/18/2019 15:00 to 14:10 24.157 24.151 24.152 24.151 24.145 24.141
11/18/2019 14:00 to 13:10 24.145 24.140 24.135 24.131 24.139 24.139
11/18/2019 13:00 to 12:10 24.146 24.137 24.134 24.137 24.130 24.139
11/18/2019 12:00 to 11:10 24.137 24.147 -- -- 24.146 24.161
11/18/2019 11:00 to 10:10 24.163 24.164 24.153 24.162 24.174 24.164
11/18/2019 10:00 to 9:10 24.173 24.179 24.177 24.164 24.177 24.184
11/18/2019 09:00 to 8:10 24.177 24.181 24.173 24.170 24.181 24.181
11/18/2019 08:00 to 7:10 24.168 24.188 24.186 24.186 24.188 24.194
11/18/2019 07:00 to 6:10 24.197 24.207 24.209 24.211 24.212 24.205
11/18/2019 06:00 to 5:10 24.205 24.224 24.224 24.211 24.199 24.216
11/18/2019 05:00 to 4:10 24.224 24.231 24.249 24.236 24.254 24.239
11/18/2019 04:00 to 3:10 24.241 24.253 24.251 24.255 24.252 24.251
11/18/2019 03:00 to 2:10 24.265 24.265 24.272 24.308 24.304 24.306
11/18/2019 02:00 to 1:10 24.336 24.344 24.348 24.348 24.364 24.346
11/18/2019 01:00 to 0:10 24.371 24.379 24.383 24.383 24.394 24.409

 

 

 

Conductivity [S/m]     6 entries per hour
Showing data from 11/19/2019 (15:00:00 Z) to 11/18/2019 (00:00:01 Z)
Previous Next [ Day | 3-Days | 7-Days ]
First Last
Prev [ Day | 3-Days | 7-Days ] Next
First Last

Start Time:     :
End Time:     :     
Time (in GMT) :00 :50 :40 :30 :20 :10
Previous Next [ Day | 3-Days | 7-Days ]
First Last
Prev [ Day | 3-Days | 7-Days ] Next
First Last


123 => good data
MM => data is determined as missing
-- => data not received/configured
Back to Top Back to Top
11/19/2019 15:00 to 14:10 5.19175 5.19156 5.19147 5.19171 5.19179 5.19168
11/19/2019 14:00 to 13:10 5.19162 5.19183 5.19168 5.19192 5.19193 5.19188
11/19/2019 13:00 to 12:10 5.19159 5.19208 5.19148 5.19196 5.19230 5.19253
11/19/2019 12:00 to 11:10 5.19262 5.19254 5.19314 5.19317 5.19327 5.19366
11/19/2019 11:00 to 10:10 5.19386 5.19367 5.19341 5.19417 5.19395 5.19501
11/19/2019 10:00 to 9:10 5.19443 5.19481 5.19467 5.19517 5.19510 5.19526
11/19/2019 09:00 to 8:10 5.19429 5.19430 5.19433 5.19544 5.19605 5.19610
11/19/2019 08:00 to 7:10 5.19635 5.19531 5.19592 5.19626 5.19565 5.19643
11/19/2019 07:00 to 6:10 5.19605 5.19662 5.19551 5.19615 5.19614 5.19601
11/19/2019 06:00 to 5:10 5.19568 5.19666 5.19680 5.19723 5.19696 5.19787
11/19/2019 05:00 to 4:10 5.19873 5.19973 5.20041 5.20023 5.20075 5.20007
11/19/2019 04:00 to 3:10 5.20033 5.19958 5.20083 5.20310 5.20296 5.20319
11/19/2019 03:00 to 2:10 5.20242 5.20258 5.20164 5.20220 5.20338 5.20319
11/19/2019 02:00 to 1:10 5.20426 5.20538 5.20406 5.20547 5.20556 5.20628
11/19/2019 01:00 to 0:10 5.20695 5.20753 5.20766 5.20992 5.21058 5.21263
11/19/2019 00:00 to 23:10 5.21231 5.21177 5.21325 5.21704 5.21648 5.21651
11/18/2019 23:00 to 22:10 5.21569 5.21683 5.21687 5.21710 5.22075 5.21998
11/18/2019 22:00 to 21:10 5.22026 5.21989 5.21793 5.22100 5.21751 5.21703
11/18/2019 21:00 to 20:10 5.21913 5.21918 5.21759 5.21712 5.21693 5.21212
11/18/2019 20:00 to 19:10 5.21030 5.21194 5.21153 5.20901 5.21044 5.21123
11/18/2019 19:00 to 18:10 5.20889 5.20755 5.20409 5.20456 5.20592 5.20703
11/18/2019 18:00 to 17:10 5.20184 5.20216 5.20421 5.20273 5.19959 5.19948
11/18/2019 17:00 to 16:10 5.19806 5.19784 5.19840 5.19705 5.19494 5.19531
11/18/2019 16:00 to 15:10 5.19517 5.19416 5.19454 5.19415 5.19388 5.19359
11/18/2019 15:00 to 14:10 5.19324 5.19276 5.19268 5.19260 5.19201 5.19162
11/18/2019 14:00 to 13:10 5.19177 5.19155 5.19113 5.19072 5.19109 5.19145
11/18/2019 13:00 to 12:10 5.19179 5.19113 5.19092 5.19134 5.19052 5.19122
11/18/2019 12:00 to 11:10 5.19118 5.19211 5.19102 5.19115 5.19206 5.19372
11/18/2019 11:00 to 10:10 5.19383 5.19391 5.19324 5.19456 5.19503 5.19435
11/18/2019 10:00 to 9:10 5.19507 5.19567 5.19551 5.19445 5.19553 5.19572
11/18/2019 09:00 to 8:10 5.19557 5.19611 5.19534 5.19503 5.19582 5.19580
11/18/2019 08:00 to 7:10 5.19497 5.19638 5.19618 5.19673 5.19667 5.19705
11/18/2019 07:00 to 6:10 5.19743 5.19891 5.19877 5.19889 5.19912 5.19882
11/18/2019 06:00 to 5:10 5.19885 5.20009 5.20053 5.19925 5.19823 5.19947
11/18/2019 05:00 to 4:10 5.20033 5.20085 5.20266 5.20164 5.20321 5.20225
11/18/2019 04:00 to 3:10 5.20184 5.20308 5.20296 5.20305 5.20323 5.20300
11/18/2019 03:00 to 2:10 5.20468 5.20443 5.20593 5.20919 5.20839 5.20901
11/18/2019 02:00 to 1:10 5.21245 5.21324 5.21376 5.21378 5.21528 5.21347
11/18/2019 01:00 to 0:10 5.21594 5.21683 5.21726 5.21714 5.21818 5.21993

 

 

 

Salinity [psu]     6 entries per hour
Showing data from 11/19/2019 (15:00:00 Z) to 11/18/2019 (00:00:01 Z)
Previous Next [ Day | 3-Days | 7-Days ]
First Last
Prev [ Day | 3-Days | 7-Days ] Next
First Last

Start Time:     :
End Time:     :     
Time (in GMT) :00 :50 :40 :30 :20 :10
Previous Next [ Day | 3-Days | 7-Days ]
First Last
Prev [ Day | 3-Days | 7-Days ] Next
First Last


123 => good data
MM => data is determined as missing
-- => data not received/configured
Back to Top Back to Top
11/19/2019 15:00 to 14:10 34.81 34.81 34.81 34.80 34.81 34.81
11/19/2019 14:00 to 13:10 34.81 34.81 34.81 34.81 34.81 34.81
11/19/2019 13:00 to 12:10 34.81 34.81 34.81 34.81 34.81 34.81
11/19/2019 12:00 to 11:10 34.81 34.81 34.81 34.81 34.81 34.81
11/19/2019 11:00 to 10:10 34.81 34.81 34.81 34.81 34.81 34.81
11/19/2019 10:00 to 9:10 34.81 34.81 34.81 34.81 34.81 34.81
11/19/2019 09:00 to 8:10 34.81 34.81 34.81 34.81 34.81 34.81
11/19/2019 08:00 to 7:10 34.81 34.81 34.81 34.81 34.81 34.81
11/19/2019 07:00 to 6:10 34.81 34.81 34.81 34.81 34.81 34.81
11/19/2019 06:00 to 5:10 34.81 34.81 34.81 34.81 34.81 34.80
11/19/2019 05:00 to 4:10 34.81 34.81 34.81 34.81 34.81 34.81
11/19/2019 04:00 to 3:10 34.81 34.81 34.81 34.81 34.81 34.81
11/19/2019 03:00 to 2:10 34.81 34.81 34.81 34.81 34.81 34.81
11/19/2019 02:00 to 1:10 34.81 34.81 34.81 34.81 34.81 34.81
11/19/2019 01:00 to 0:10 34.81 34.81 34.81 34.81 34.81 34.81
11/19/2019 00:00 to 23:10 34.81 34.81 34.81 34.81 34.81 34.81
11/18/2019 23:00 to 22:10 34.81 34.81 34.81 34.81 34.81 34.81
11/18/2019 22:00 to 21:10 34.81 34.81 34.81 34.81 34.81 34.81
11/18/2019 21:00 to 20:10 34.81 34.81 34.81 34.81 34.81 34.81
11/18/2019 20:00 to 19:10 34.81 34.80 34.81 34.81 34.80 34.82
11/18/2019 19:00 to 18:10 34.81 34.81 34.81 34.81 34.81 34.81
11/18/2019 18:00 to 17:10 34.81 34.80 34.80 34.82 34.81 34.80
11/18/2019 17:00 to 16:10 34.80 34.80 34.80 34.81 34.80 34.81
11/18/2019 16:00 to 15:10 34.81 34.81 34.81 34.81 34.81 34.81
11/18/2019 15:00 to 14:10 34.80 34.80 34.80 34.80 34.80 34.80
11/18/2019 14:00 to 13:10 34.80 34.80 34.80 34.81 34.80 34.80
11/18/2019 13:00 to 12:10 34.80 34.80 34.80 34.80 34.80 34.80
11/18/2019 12:00 to 11:10 34.80 34.80 -- -- 34.80 34.80
11/18/2019 11:00 to 10:10 34.80 34.80 34.81 34.81 34.80 34.81
11/18/2019 10:00 to 9:10 34.80 34.81 34.81 34.81 34.81 34.80
11/18/2019 09:00 to 8:10 34.81 34.81 34.81 34.81 34.80 34.80
11/18/2019 08:00 to 7:10 34.81 34.80 34.80 34.81 34.81 34.80
11/18/2019 07:00 to 6:10 34.80 34.81 34.81 34.80 34.81 34.81
11/18/2019 06:00 to 5:10 34.81 34.80 34.81 34.81 34.81 34.80
11/18/2019 05:00 to 4:10 34.81 34.80 34.80 34.81 34.80 34.81
11/18/2019 04:00 to 3:10 34.80 34.80 34.80 34.80 34.80 34.80
11/18/2019 03:00 to 2:10 34.81 34.80 34.81 34.81 34.80 34.81
11/18/2019 02:00 to 1:10 34.81 34.81 34.81 34.81 34.81 34.81
11/18/2019 01:00 to 0:10 34.81 34.81 34.81 34.81 34.81 34.81